sensor_id;sensor_type;location;lat;lon;timestamp;P1;durP1;ratioP1;P2;durP2;ratioP2
70592;SDS011;58294;42.988;20.338;2022-12-10T00:01:09;214.25;;;179.40;;
70592;SDS011;58294;42.988;20.338;2022-12-10T00:03:41;220.95;;;195.40;;
70592;SDS011;58294;42.988;20.338;2022-12-10T00:06:09;231.05;;;197.70;;
70592;SDS011;58294;42.988;20.338;2022-12-10T00:08:38;222.30;;;193.00;;
70592;SDS011;58294;42.988;20.338;2022-12-10T00:11:06;225.00;;;190.07;;
70592;SDS011;58294;42.988;20.338;2022-12-10T00:13:34;233.48;;;199.00;;
70592;SDS011;58294;42.988;20.338;2022-12-10T00:16:01;259.42;;;218.13;;
70592;SDS011;58294;42.988;20.338;2022-12-10T00:18:28;252.95;;;209.13;;
70592;SDS011;58294;42.988;20.338;2022-12-10T00:20:54;269.25;;;221.70;;
70592;SDS011;58294;42.988;20.338;2022-12-10T00:23:20;265.77;;;216.30;;
70592;SDS011;58294;42.988;20.338;2022-12-10T00:25:46;244.45;;;202.02;;
70592;SDS011;58294;42.988;20.338;2022-12-10T00:28:12;249.95;;;211.13;;
70592;SDS011;58294;42.988;20.338;2022-12-10T00:30:38;239.48;;;197.93;;
70592;SDS011;58294;42.988;20.338;2022-12-10T00:33:04;235.77;;;189.38;;
70592;SDS011;58294;42.988;20.338;2022-12-10T00:35:30;256.77;;;215.30;;
70592;SDS011;58294;42.988;20.338;2022-12-10T00:37:56;217.00;;;175.85;;
70592;SDS011;58294;42.988;20.338;2022-12-10T00:40:22;211.27;;;163.65;;
70592;SDS011;58294;42.988;20.338;2022-12-10T00:42:48;233.90;;;192.77;;
70592;SDS011;58294;42.988;20.338;2022-12-10T00:45:14;226.60;;;181.73;;
70592;SDS011;58294;42.988;20.338;2022-12-10T00:47:39;225.95;;;180.57;;
70592;SDS011;58294;42.988;20.338;2022-12-10T00:50:05;199.48;;;160.18;;
70592;SDS011;58294;42.988;20.338;2022-12-10T00:52:31;194.52;;;149.82;;
70592;SDS011;58294;42.988;20.338;2022-12-10T00:54:57;186.25;;;151.88;;
70592;SDS011;58294;42.988;20.338;2022-12-10T00:57:23;176.88;;;141.88;;
70592;SDS011;58294;42.988;20.338;2022-12-10T00:59:48;178.02;;;142.32;;
70592;SDS011;58294;42.988;20.338;2022-12-10T01:02:14;180.30;;;148.50;;
70592;SDS011;58294;42.988;20.338;2022-12-10T01:04:40;173.00;;;145.27;;
70592;SDS011;58294;42.988;20.338;2022-12-10T01:07:06;187.88;;;145.75;;
70592;SDS011;58294;42.988;20.338;2022-12-10T01:09:31;183.20;;;154.95;;
70592;SDS011;58294;42.988;20.338;2022-12-10T01:12:00;213.63;;;173.10;;
70592;SDS011;58294;42.988;20.338;2022-12-10T01:14:28;218.27;;;180.82;;
70592;SDS011;58294;42.988;20.338;2022-12-10T01:16:56;236.15;;;189.50;;
70592;SDS011;58294;42.988;20.338;2022-12-10T01:19:28;247.70;;;191.32;;
70592;SDS011;58294;42.988;20.338;2022-12-10T01:21:54;213.02;;;169.20;;
70592;SDS011;58294;42.988;20.338;2022-12-10T01:24:22;182.25;;;153.15;;
70592;SDS011;58294;42.988;20.338;2022-12-10T01:26:49;177.23;;;149.93;;
70592;SDS011;58294;42.988;20.338;2022-12-10T01:29:15;197.07;;;158.95;;
70592;SDS011;58294;42.988;20.338;2022-12-10T01:31:41;182.48;;;152.43;;
70592;SDS011;58294;42.988;20.338;2022-12-10T01:34:09;207.30;;;171.30;;
70592;SDS011;58294;42.988;20.338;2022-12-10T01:36:38;216.80;;;168.73;;
70592;SDS011;58294;42.988;20.338;2022-12-10T01:39:07;208.75;;;165.85;;
70592;SDS011;58294;42.988;20.338;2022-12-10T01:41:37;201.82;;;164.75;;
70592;SDS011;58294;42.988;20.338;2022-12-10T01:46:35;184.05;;;144.65;;
70592;SDS011;58294;42.988;20.338;2022-12-10T01:49:07;175.10;;;139.40;;
70592;SDS011;58294;42.988;20.338;2022-12-10T01:51:36;173.93;;;141.55;;
70592;SDS011;58294;42.988;20.338;2022-12-10T01:54:05;166.68;;;135.30;;
70592;SDS011;58294;42.988;20.338;2022-12-10T01:56:40;181.63;;;144.48;;
70592;SDS011;58294;42.988;20.338;2022-12-10T01:59:09;183.00;;;140.75;;
70592;SDS011;58294;42.988;20.338;2022-12-10T02:01:38;166.88;;;135.13;;
70592;SDS011;58294;42.988;20.338;2022-12-10T02:04:15;211.43;;;172.68;;
70592;SDS011;58294;42.988;20.338;2022-12-10T02:06:58;201.18;;;162.52;;
70592;SDS011;58294;42.988;20.338;2022-12-10T02:09:34;200.13;;;156.18;;
70592;SDS011;58294;42.988;20.338;2022-12-10T02:12:05;202.07;;;157.80;;
70592;SDS011;58294;42.988;20.338;2022-12-10T02:14:50;208.70;;;160.13;;
70592;SDS011;58294;42.988;20.338;2022-12-10T02:17:26;194.48;;;154.35;;
70592;SDS011;58294;42.988;20.338;2022-12-10T02:20:18;174.05;;;139.00;;
70592;SDS011;58294;42.988;20.338;2022-12-10T02:23:02;175.77;;;138.98;;
70592;SDS011;58294;42.988;20.338;2022-12-10T02:25:46;163.05;;;135.35;;
70592;SDS011;58294;42.988;20.338;2022-12-10T02:28:39;161.38;;;132.82;;
70592;SDS011;58294;42.988;20.338;2022-12-10T02:31:14;170.45;;;137.25;;
70592;SDS011;58294;42.988;20.338;2022-12-10T02:33:46;165.07;;;130.82;;
70592;SDS011;58294;42.988;20.338;2022-12-10T02:36:19;173.07;;;133.45;;
70592;SDS011;58294;42.988;20.338;2022-12-10T02:38:47;174.10;;;138.18;;
70592;SDS011;58294;42.988;20.338;2022-12-10T02:41:34;197.40;;;158.07;;
70592;SDS011;58294;42.988;20.338;2022-12-10T02:44:06;202.57;;;159.45;;
70592;SDS011;58294;42.988;20.338;2022-12-10T02:46:35;199.02;;;146.15;;
70592;SDS011;58294;42.988;20.338;2022-12-10T02:49:03;152.38;;;125.10;;
70592;SDS011;58294;42.988;20.338;2022-12-10T02:51:31;182.50;;;139.02;;
70592;SDS011;58294;42.988;20.338;2022-12-10T02:54:00;195.82;;;145.52;;
70592;SDS011;58294;42.988;20.338;2022-12-10T02:56:35;176.32;;;143.50;;
70592;SDS011;58294;42.988;20.338;2022-12-10T03:04:29;175.43;;;135.95;;
70592;SDS011;58294;42.988;20.338;2022-12-10T03:07:09;162.90;;;130.88;;
70592;SDS011;58294;42.988;20.338;2022-12-10T03:09:45;164.48;;;127.18;;
70592;SDS011;58294;42.988;20.338;2022-12-10T03:12:38;153.65;;;125.00;;
70592;SDS011;58294;42.988;20.338;2022-12-10T03:15:08;176.20;;;141.32;;
70592;SDS011;58294;42.988;20.338;2022-12-10T03:17:36;398.42;;;268.80;;
70592;SDS011;58294;42.988;20.338;2022-12-10T03:20:06;321.15;;;226.07;;
70592;SDS011;58294;42.988;20.338;2022-12-10T03:22:36;323.75;;;221.93;;
70592;SDS011;58294;42.988;20.338;2022-12-10T03:25:05;175.48;;;133.45;;
70592;SDS011;58294;42.988;20.338;2022-12-10T03:27:34;141.30;;;114.60;;
70592;SDS011;58294;42.988;20.338;2022-12-10T03:30:02;116.57;;;94.88;;
70592;SDS011;58294;42.988;20.338;2022-12-10T03:32:28;131.55;;;104.30;;
70592;SDS011;58294;42.988;20.338;2022-12-10T03:34:56;136.88;;;107.72;;
70592;SDS011;58294;42.988;20.338;2022-12-10T03:37:24;143.10;;;111.70;;
70592;SDS011;58294;42.988;20.338;2022-12-10T03:39:51;153.98;;;124.28;;
70592;SDS011;58294;42.988;20.338;2022-12-10T03:42:18;152.70;;;120.35;;
70592;SDS011;58294;42.988;20.338;2022-12-10T03:44:43;161.38;;;131.88;;
70592;SDS011;58294;42.988;20.338;2022-12-10T03:47:10;158.10;;;124.70;;
70592;SDS011;58294;42.988;20.338;2022-12-10T03:49:39;165.80;;;123.18;;
70592;SDS011;58294;42.988;20.338;2022-12-10T03:52:06;147.07;;;112.20;;
70592;SDS011;58294;42.988;20.338;2022-12-10T03:54:32;145.73;;;109.95;;
70592;SDS011;58294;42.988;20.338;2022-12-10T03:56:58;136.60;;;103.75;;
70592;SDS011;58294;42.988;20.338;2022-12-10T03:59:24;172.02;;;128.25;;
70592;SDS011;58294;42.988;20.338;2022-12-10T04:01:50;161.63;;;122.10;;
70592;SDS011;58294;42.988;20.338;2022-12-10T04:04:15;148.13;;;109.90;;
70592;SDS011;58294;42.988;20.338;2022-12-10T04:06:42;134.13;;;103.22;;
70592;SDS011;58294;42.988;20.338;2022-12-10T04:09:11;137.43;;;101.28;;
70592;SDS011;58294;42.988;20.338;2022-12-10T04:11:37;126.03;;;102.32;;
70592;SDS011;58294;42.988;20.338;2022-12-10T04:14:03;119.63;;;96.20;;
70592;SDS011;58294;42.988;20.338;2022-12-10T04:16:48;122.40;;;97.18;;
70592;SDS011;58294;42.988;20.338;2022-12-10T04:19:15;138.18;;;104.97;;
70592;SDS011;58294;42.988;20.338;2022-12-10T04:21:42;140.77;;;110.10;;
70592;SDS011;58294;42.988;20.338;2022-12-10T04:24:29;138.20;;;108.22;;
70592;SDS011;58294;42.988;20.338;2022-12-10T04:29:51;109.75;;;86.65;;
70592;SDS011;58294;42.988;20.338;2022-12-10T04:32:18;116.97;;;88.05;;
70592;SDS011;58294;42.988;20.338;2022-12-10T04:34:45;113.53;;;90.82;;
70592;SDS011;58294;42.988;20.338;2022-12-10T04:37:11;117.93;;;92.20;;
70592;SDS011;58294;42.988;20.338;2022-12-10T04:39:38;141.30;;;99.55;;
70592;SDS011;58294;42.988;20.338;2022-12-10T04:42:04;119.07;;;99.88;;
70592;SDS011;58294;42.988;20.338;2022-12-10T04:44:31;121.47;;;93.30;;
70592;SDS011;58294;42.988;20.338;2022-12-10T04:46:57;157.45;;;123.55;;
70592;SDS011;58294;42.988;20.338;2022-12-10T04:49:23;154.05;;;122.88;;
70592;SDS011;58294;42.988;20.338;2022-12-10T04:51:49;127.85;;;102.53;;
70592;SDS011;58294;42.988;20.338;2022-12-10T04:54:15;137.32;;;110.85;;
70592;SDS011;58294;42.988;20.338;2022-12-10T04:56:41;136.07;;;107.30;;
70592;SDS011;58294;42.988;20.338;2022-12-10T04:59:08;144.45;;;109.78;;
70592;SDS011;58294;42.988;20.338;2022-12-10T05:01:35;121.10;;;103.40;;
70592;SDS011;58294;42.988;20.338;2022-12-10T05:04:01;123.70;;;103.10;;
70592;SDS011;58294;42.988;20.338;2022-12-10T05:06:30;125.60;;;102.28;;
70592;SDS011;58294;42.988;20.338;2022-12-10T05:08:56;138.07;;;105.82;;
70592;SDS011;58294;42.988;20.338;2022-12-10T05:11:23;132.10;;;107.07;;
70592;SDS011;58294;42.988;20.338;2022-12-10T05:13:50;134.52;;;112.03;;
70592;SDS011;58294;42.988;20.338;2022-12-10T05:16:18;139.77;;;109.82;;
70592;SDS011;58294;42.988;20.338;2022-12-10T05:18:44;125.18;;;101.85;;
70592;SDS011;58294;42.988;20.338;2022-12-10T05:21:11;115.72;;;95.60;;
70592;SDS011;58294;42.988;20.338;2022-12-10T05:23:39;125.53;;;104.55;;
70592;SDS011;58294;42.988;20.338;2022-12-10T05:26:09;125.50;;;100.10;;
70592;SDS011;58294;42.988;20.338;2022-12-10T05:28:41;122.00;;;101.95;;
70592;SDS011;58294;42.988;20.338;2022-12-10T05:31:16;116.60;;;95.18;;
70592;SDS011;58294;42.988;20.338;2022-12-10T05:33:46;103.47;;;85.35;;
70592;SDS011;58294;42.988;20.338;2022-12-10T05:36:13;154.25;;;128.02;;
70592;SDS011;58294;42.988;20.338;2022-12-10T05:38:41;163.15;;;131.02;;
70592;SDS011;58294;42.988;20.338;2022-12-10T05:41:14;276.83;;;218.73;;
70592;SDS011;58294;42.988;20.338;2022-12-10T05:43:42;218.10;;;170.05;;
70592;SDS011;58294;42.988;20.338;2022-12-10T05:46:11;298.33;;;226.25;;
70592;SDS011;58294;42.988;20.338;2022-12-10T05:48:39;395.60;;;281.08;;
70592;SDS011;58294;42.988;20.338;2022-12-10T05:51:06;388.98;;;288.17;;
70592;SDS011;58294;42.988;20.338;2022-12-10T05:53:33;253.98;;;195.52;;
70592;SDS011;58294;42.988;20.338;2022-12-10T05:56:00;194.82;;;153.63;;
70592;SDS011;58294;42.988;20.338;2022-12-10T05:58:27;196.82;;;146.27;;
70592;SDS011;58294;42.988;20.338;2022-12-10T06:00:54;291.80;;;204.63;;
70592;SDS011;58294;42.988;20.338;2022-12-10T06:03:24;265.48;;;200.63;;
70592;SDS011;58294;42.988;20.338;2022-12-10T06:05:51;307.98;;;224.75;;
70592;SDS011;58294;42.988;20.338;2022-12-10T06:08:17;314.58;;;233.75;;
70592;SDS011;58294;42.988;20.338;2022-12-10T06:10:43;308.05;;;225.32;;
70592;SDS011;58294;42.988;20.338;2022-12-10T06:13:09;281.25;;;209.30;;
70592;SDS011;58294;42.988;20.338;2022-12-10T06:15:37;274.67;;;203.48;;
70592;SDS011;58294;42.988;20.338;2022-12-10T06:18:04;415.63;;;323.20;;
70592;SDS011;58294;42.988;20.338;2022-12-10T06:20:30;307.50;;;240.25;;
70592;SDS011;58294;42.988;20.338;2022-12-10T06:22:56;257.45;;;201.77;;
70592;SDS011;58294;42.988;20.338;2022-12-10T06:25:22;202.75;;;166.43;;
70592;SDS011;58294;42.988;20.338;2022-12-10T06:27:48;165.07;;;134.90;;
70592;SDS011;58294;42.988;20.338;2022-12-10T06:30:14;171.30;;;136.75;;
70592;SDS011;58294;42.988;20.338;2022-12-10T06:32:40;174.13;;;141.20;;
70592;SDS011;58294;42.988;20.338;2022-12-10T06:35:08;214.50;;;168.82;;
70592;SDS011;58294;42.988;20.338;2022-12-10T06:37:34;220.65;;;180.02;;
70592;SDS011;58294;42.988;20.338;2022-12-10T06:40:00;210.25;;;172.73;;
70592;SDS011;58294;42.988;20.338;2022-12-10T06:42:26;227.35;;;176.30;;
70592;SDS011;58294;42.988;20.338;2022-12-10T06:44:52;197.07;;;162.48;;
70592;SDS011;58294;42.988;20.338;2022-12-10T06:47:18;206.30;;;160.75;;
70592;SDS011;58294;42.988;20.338;2022-12-10T06:49:44;194.70;;;159.20;;
70592;SDS011;58294;42.988;20.338;2022-12-10T06:52:10;236.27;;;188.68;;
70592;SDS011;58294;42.988;20.338;2022-12-10T06:54:35;198.90;;;160.77;;
70592;SDS011;58294;42.988;20.338;2022-12-10T06:57:01;198.93;;;161.13;;
70592;SDS011;58294;42.988;20.338;2022-12-10T06:59:27;191.77;;;159.00;;
70592;SDS011;58294;42.988;20.338;2022-12-10T07:01:53;197.38;;;162.85;;
70592;SDS011;58294;42.988;20.338;2022-12-10T07:04:18;195.48;;;161.30;;
70592;SDS011;58294;42.988;20.338;2022-12-10T07:06:44;192.77;;;156.45;;
70592;SDS011;58294;42.988;20.338;2022-12-10T07:09:10;194.00;;;158.88;;
70592;SDS011;58294;42.988;20.338;2022-12-10T07:11:36;190.63;;;156.90;;
70592;SDS011;58294;42.988;20.338;2022-12-10T07:14:02;209.52;;;174.35;;
70592;SDS011;58294;42.988;20.338;2022-12-10T07:16:29;171.73;;;143.23;;
70592;SDS011;58294;42.988;20.338;2022-12-10T07:18:57;181.30;;;149.80;;
70592;SDS011;58294;42.988;20.338;2022-12-10T07:21:26;155.75;;;129.27;;
70592;SDS011;58294;42.988;20.338;2022-12-10T07:23:55;151.57;;;125.78;;
70592;SDS011;58294;42.988;20.338;2022-12-10T07:26:23;169.65;;;133.50;;
70592;SDS011;58294;42.988;20.338;2022-12-10T07:28:50;188.98;;;150.18;;
70592;SDS011;58294;42.988;20.338;2022-12-10T07:31:16;208.32;;;179.40;;
70592;SDS011;58294;42.988;20.338;2022-12-10T07:33:42;228.18;;;201.00;;
70592;SDS011;58294;42.988;20.338;2022-12-10T07:36:09;213.80;;;185.30;;
70592;SDS011;58294;42.988;20.338;2022-12-10T07:38:36;260.80;;;228.88;;
70592;SDS011;58294;42.988;20.338;2022-12-10T07:41:02;236.38;;;204.38;;
70592;SDS011;58294;42.988;20.338;2022-12-10T07:43:34;218.52;;;194.30;;
70592;SDS011;58294;42.988;20.338;2022-12-10T07:46:03;207.80;;;175.88;;
70592;SDS011;58294;42.988;20.338;2022-12-10T07:48:36;183.85;;;152.90;;
70592;SDS011;58294;42.988;20.338;2022-12-10T07:51:03;189.60;;;159.55;;
70592;SDS011;58294;42.988;20.338;2022-12-10T07:53:30;217.95;;;181.80;;
70592;SDS011;58294;42.988;20.338;2022-12-10T07:55:56;215.02;;;183.35;;
70592;SDS011;58294;42.988;20.338;2022-12-10T07:58:22;255.10;;;226.93;;
70592;SDS011;58294;42.988;20.338;2022-12-10T08:00:48;221.90;;;195.25;;
70592;SDS011;58294;42.988;20.338;2022-12-10T08:03:14;221.30;;;194.55;;
70592;SDS011;58294;42.988;20.338;2022-12-10T08:05:40;208.25;;;179.10;;
70592;SDS011;58294;42.988;20.338;2022-12-10T08:08:06;227.05;;;191.55;;
70592;SDS011;58294;42.988;20.338;2022-12-10T08:10:35;211.77;;;188.70;;
70592;SDS011;58294;42.988;20.338;2022-12-10T08:13:02;230.73;;;204.82;;
70592;SDS011;58294;42.988;20.338;2022-12-10T08:15:28;249.68;;;221.15;;
70592;SDS011;58294;42.988;20.338;2022-12-10T08:17:54;264.13;;;235.52;;
70592;SDS011;58294;42.988;20.338;2022-12-10T08:20:20;249.93;;;222.35;;
70592;SDS011;58294;42.988;20.338;2022-12-10T08:22:47;223.55;;;198.60;;
70592;SDS011;58294;42.988;20.338;2022-12-10T08:25:13;234.63;;;209.63;;
70592;SDS011;58294;42.988;20.338;2022-12-10T08:27:39;244.15;;;216.63;;
70592;SDS011;58294;42.988;20.338;2022-12-10T08:30:05;231.38;;;206.52;;
70592;SDS011;58294;42.988;20.338;2022-12-10T08:32:31;216.48;;;191.40;;
70592;SDS011;58294;42.988;20.338;2022-12-10T08:34:57;228.75;;;204.40;;
70592;SDS011;58294;42.988;20.338;2022-12-10T08:37:22;225.82;;;201.82;;
70592;SDS011;58294;42.988;20.338;2022-12-10T08:39:48;202.63;;;180.15;;
70592;SDS011;58294;42.988;20.338;2022-12-10T08:42:14;248.25;;;222.30;;
70592;SDS011;58294;42.988;20.338;2022-12-10T08:44:40;249.35;;;222.23;;
70592;SDS011;58294;42.988;20.338;2022-12-10T08:47:06;246.27;;;216.70;;
70592;SDS011;58294;42.988;20.338;2022-12-10T08:49:31;228.88;;;201.38;;
70592;SDS011;58294;42.988;20.338;2022-12-10T08:51:57;265.95;;;237.52;;
70592;SDS011;58294;42.988;20.338;2022-12-10T08:54:23;225.88;;;202.27;;
70592;SDS011;58294;42.988;20.338;2022-12-10T08:56:49;220.15;;;197.63;;
70592;SDS011;58294;42.988;20.338;2022-12-10T08:59:15;204.48;;;181.95;;
70592;SDS011;58294;42.988;20.338;2022-12-10T09:01:41;123.70;;;109.30;;
70592;SDS011;58294;42.988;20.338;2022-12-10T09:04:07;136.30;;;121.97;;
70592;SDS011;58294;42.988;20.338;2022-12-10T09:06:33;138.93;;;118.82;;
70592;SDS011;58294;42.988;20.338;2022-12-10T09:08:59;133.85;;;119.85;;
70592;SDS011;58294;42.988;20.338;2022-12-10T09:11:27;163.35;;;146.35;;
70592;SDS011;58294;42.988;20.338;2022-12-10T09:13:58;172.57;;;153.73;;
70592;SDS011;58294;42.988;20.338;2022-12-10T09:16:42;176.52;;;158.07;;
70592;SDS011;58294;42.988;20.338;2022-12-10T09:19:08;143.10;;;127.85;;
70592;SDS011;58294;42.988;20.338;2022-12-10T09:21:34;147.02;;;131.63;;
70592;SDS011;58294;42.988;20.338;2022-12-10T09:24:01;146.60;;;131.00;;
70592;SDS011;58294;42.988;20.338;2022-12-10T09:26:27;194.27;;;173.50;;
70592;SDS011;58294;42.988;20.338;2022-12-10T09:28:53;203.43;;;180.95;;
70592;SDS011;58294;42.988;20.338;2022-12-10T09:31:20;186.45;;;162.75;;
70592;SDS011;58294;42.988;20.338;2022-12-10T09:33:46;141.32;;;126.03;;
70592;SDS011;58294;42.988;20.338;2022-12-10T09:36:13;144.55;;;129.43;;
70592;SDS011;58294;42.988;20.338;2022-12-10T09:38:40;171.80;;;153.23;;
70592;SDS011;58294;42.988;20.338;2022-12-10T09:44:02;208.52;;;186.82;;
70592;SDS011;58294;42.988;20.338;2022-12-10T09:52:33;153.57;;;136.63;;
70592;SDS011;58294;42.988;20.338;2022-12-10T09:55:08;203.77;;;182.23;;
70592;SDS011;58294;42.988;20.338;2022-12-10T09:57:42;143.05;;;123.47;;
70592;SDS011;58294;42.988;20.338;2022-12-10T10:00:22;167.75;;;149.05;;
70592;SDS011;58294;42.988;20.338;2022-12-10T10:02:56;141.27;;;126.00;;
70592;SDS011;58294;42.988;20.338;2022-12-10T10:05:27;142.68;;;127.53;;
70592;SDS011;58294;42.988;20.338;2022-12-10T10:08:17;147.13;;;131.60;;
70592;SDS011;58294;42.988;20.338;2022-12-10T10:10:50;160.50;;;143.90;;
70592;SDS011;58294;42.988;20.338;2022-12-10T10:13:20;155.02;;;137.50;;
70592;SDS011;58294;42.988;20.338;2022-12-10T10:15:49;72.72;;;64.05;;
70592;SDS011;58294;42.988;20.338;2022-12-10T10:20:49;16.17;;;13.20;;
70592;SDS011;58294;42.988;20.338;2022-12-10T10:23:15;17.63;;;14.60;;
70592;SDS011;58294;42.988;20.338;2022-12-10T10:25:42;14.05;;;9.60;;
70592;SDS011;58294;42.988;20.338;2022-12-10T10:28:18;9.00;;;5.03;;
70592;SDS011;58294;42.988;20.338;2022-12-10T10:30:44;5.55;;;3.95;;
70592;SDS011;58294;42.988;20.338;2022-12-10T10:33:10;7.88;;;5.63;;
70592;SDS011;58294;42.988;20.338;2022-12-10T10:38:20;11.25;;;5.43;;
70592;SDS011;58294;42.988;20.338;2022-12-10T10:40:50;7.65;;;5.47;;
70592;SDS011;58294;42.988;20.338;2022-12-10T10:43:34;25.30;;;14.93;;
70592;SDS011;58294;42.988;20.338;2022-12-10T10:48:40;27.30;;;16.10;;
70592;SDS011;58294;42.988;20.338;2022-12-10T10:51:07;14.73;;;8.32;;
70592;SDS011;58294;42.988;20.338;2022-12-10T10:53:47;6.70;;;4.90;;
70592;SDS011;58294;42.988;20.338;2022-12-10T10:56:17;8.50;;;4.95;;
70592;SDS011;58294;42.988;20.338;2022-12-10T10:58:56;10.75;;;7.07;;
70592;SDS011;58294;42.988;20.338;2022-12-10T11:04:53;13.60;;;7.03;;
70592;SDS011;58294;42.988;20.338;2022-12-10T11:10:18;5.18;;;2.60;;
70592;SDS011;58294;42.988;20.338;2022-12-10T11:15:34;7.32;;;3.95;;
70592;SDS011;58294;42.988;20.338;2022-12-10T11:23:54;5.43;;;3.45;;
70592;SDS011;58294;42.988;20.338;2022-12-10T11:49:29;18.75;;;11.10;;
70592;SDS011;58294;42.988;20.338;2022-12-10T11:52:08;6.50;;;4.70;;
70592;SDS011;58294;42.988;20.338;2022-12-10T11:57:27;9.23;;;4.65;;
70592;SDS011;58294;42.988;20.338;2022-12-10T12:05:47;10.30;;;5.45;;
70592;SDS011;58294;42.988;20.338;2022-12-10T12:13:57;10.77;;;7.72;;
70592;SDS011;58294;42.988;20.338;2022-12-10T12:16:58;12.20;;;5.10;;
70592;SDS011;58294;42.988;20.338;2022-12-10T12:19:39;13.60;;;5.38;;
70592;SDS011;58294;42.988;20.338;2022-12-10T12:22:48;9.95;;;6.60;;
70592;SDS011;58294;42.988;20.338;2022-12-10T12:25:00;10.20;;;5.20;;
70592;SDS011;58294;42.988;20.338;2022-12-10T12:27:46;9.55;;;4.22;;
70592;SDS011;58294;42.988;20.338;2022-12-10T12:30:21;13.52;;;6.93;;
70592;SDS011;58294;42.988;20.338;2022-12-10T12:32:59;6.88;;;3.13;;
70592;SDS011;58294;42.988;20.338;2022-12-10T12:35:44;13.75;;;6.50;;
70592;SDS011;58294;42.988;20.338;2022-12-10T12:40:40;6.25;;;3.47;;
70592;SDS011;58294;42.988;20.338;2022-12-10T12:43:12;5.35;;;4.68;;
70592;SDS011;58294;42.988;20.338;2022-12-10T12:45:46;9.65;;;4.35;;
70592;SDS011;58294;42.988;20.338;2022-12-10T12:48:17;7.40;;;4.00;;
70592;SDS011;58294;42.988;20.338;2022-12-10T12:50:49;6.45;;;4.00;;
70592;SDS011;58294;42.988;20.338;2022-12-10T12:53:20;5.70;;;5.10;;
70592;SDS011;58294;42.988;20.338;2022-12-10T12:58:22;7.43;;;3.67;;
70592;SDS011;58294;42.988;20.338;2022-12-10T13:00:51;5.28;;;4.75;;
70592;SDS011;58294;42.988;20.338;2022-12-10T13:05:44;6.88;;;4.75;;
70592;SDS011;58294;42.988;20.338;2022-12-10T13:10:53;9.82;;;6.97;;
70592;SDS011;58294;42.988;20.338;2022-12-10T13:18:43;11.77;;;6.63;;
70592;SDS011;58294;42.988;20.338;2022-12-10T13:21:16;11.82;;;6.95;;
70592;SDS011;58294;42.988;20.338;2022-12-10T13:23:47;8.50;;;6.47;;
70592;SDS011;58294;42.988;20.338;2022-12-10T13:26:23;6.63;;;5.50;;
70592;SDS011;58294;42.988;20.338;2022-12-10T13:28:51;7.30;;;6.38;;
70592;SDS011;58294;42.988;20.338;2022-12-10T13:31:56;5.97;;;4.65;;
70592;SDS011;58294;42.988;20.338;2022-12-10T13:39:45;5.97;;;3.28;;
70592;SDS011;58294;42.988;20.338;2022-12-10T13:45:00;4.78;;;3.33;;
70592;SDS011;58294;42.988;20.338;2022-12-10T13:47:48;7.50;;;3.22;;
70592;SDS011;58294;42.988;20.338;2022-12-10T13:50:16;7.10;;;4.35;;
70592;SDS011;58294;42.988;20.338;2022-12-10T14:06:49;24.67;;;15.05;;
70592;SDS011;58294;42.988;20.338;2022-12-10T14:09:25;18.55;;;14.65;;
70592;SDS011;58294;42.988;20.338;2022-12-10T14:12:02;15.07;;;8.50;;
70592;SDS011;58294;42.988;20.338;2022-12-10T14:14:36;11.65;;;7.93;;
70592;SDS011;58294;42.988;20.338;2022-12-10T14:17:18;13.13;;;6.43;;
70592;SDS011;58294;42.988;20.338;2022-12-10T14:19:46;14.73;;;8.48;;
70592;SDS011;58294;42.988;20.338;2022-12-10T14:22:16;11.35;;;5.82;;
70592;SDS011;58294;42.988;20.338;2022-12-10T14:24:45;12.77;;;8.38;;
70592;SDS011;58294;42.988;20.338;2022-12-10T14:27:16;7.35;;;4.30;;
70592;SDS011;58294;42.988;20.338;2022-12-10T14:29:50;10.75;;;6.32;;
70592;SDS011;58294;42.988;20.338;2022-12-10T14:32:24;15.95;;;9.57;;
70592;SDS011;58294;42.988;20.338;2022-12-10T14:34:55;18.98;;;14.35;;
70592;SDS011;58294;42.988;20.338;2022-12-10T14:37:24;18.17;;;13.93;;
70592;SDS011;58294;42.988;20.338;2022-12-10T14:39:52;50.08;;;21.17;;
70592;SDS011;58294;42.988;20.338;2022-12-10T14:42:18;22.65;;;14.05;;
70592;SDS011;58294;42.988;20.338;2022-12-10T14:44:45;27.35;;;20.48;;
70592;SDS011;58294;42.988;20.338;2022-12-10T14:47:15;22.52;;;18.10;;
70592;SDS011;58294;42.988;20.338;2022-12-10T14:49:49;9.77;;;7.07;;
70592;SDS011;58294;42.988;20.338;2022-12-10T14:52:22;29.55;;;26.50;;
70592;SDS011;58294;42.988;20.338;2022-12-10T14:54:50;30.85;;;26.17;;
70592;SDS011;58294;42.988;20.338;2022-12-10T14:57:22;19.95;;;17.30;;
70592;SDS011;58294;42.988;20.338;2022-12-10T15:02:24;21.45;;;15.50;;
70592;SDS011;58294;42.988;20.338;2022-12-10T15:04:53;23.67;;;18.85;;
70592;SDS011;58294;42.988;20.338;2022-12-10T15:07:21;21.10;;;13.90;;
70592;SDS011;58294;42.988;20.338;2022-12-10T15:09:49;19.42;;;12.85;;
70592;SDS011;58294;42.988;20.338;2022-12-10T15:14:54;33.90;;;29.70;;
70592;SDS011;58294;42.988;20.338;2022-12-10T15:18:26;27.95;;;23.15;;
70592;SDS011;58294;42.988;20.338;2022-12-10T15:20:24;54.40;;;36.72;;
70592;SDS011;58294;42.988;20.338;2022-12-10T15:22:52;36.50;;;25.35;;
70592;SDS011;58294;42.988;20.338;2022-12-10T15:25:20;37.63;;;22.75;;
70592;SDS011;58294;42.988;20.338;2022-12-10T15:27:52;25.88;;;14.15;;
70592;SDS011;58294;42.988;20.338;2022-12-10T15:30:24;30.45;;;21.70;;
70592;SDS011;58294;42.988;20.338;2022-12-10T15:32:57;31.67;;;20.38;;
70592;SDS011;58294;42.988;20.338;2022-12-10T15:35:23;21.33;;;13.90;;
70592;SDS011;58294;42.988;20.338;2022-12-10T15:37:49;31.30;;;21.17;;
70592;SDS011;58294;42.988;20.338;2022-12-10T15:40:28;31.60;;;22.10;;
70592;SDS011;58294;42.988;20.338;2022-12-10T15:42:56;39.67;;;26.52;;
70592;SDS011;58294;42.988;20.338;2022-12-10T15:45:38;55.78;;;39.83;;
70592;SDS011;58294;42.988;20.338;2022-12-10T15:48:11;145.10;;;109.18;;
70592;SDS011;58294;42.988;20.338;2022-12-10T15:50:38;60.45;;;37.70;;
70592;SDS011;58294;42.988;20.338;2022-12-10T15:53:14;84.82;;;62.50;;
70592;SDS011;58294;42.988;20.338;2022-12-10T15:55:46;81.75;;;56.97;;
70592;SDS011;58294;42.988;20.338;2022-12-10T15:58:13;35.03;;;24.75;;
70592;SDS011;58294;42.988;20.338;2022-12-10T16:00:39;38.28;;;28.38;;
70592;SDS011;58294;42.988;20.338;2022-12-10T16:03:12;51.95;;;40.10;;
70592;SDS011;58294;42.988;20.338;2022-12-10T16:05:41;107.88;;;90.57;;
70592;SDS011;58294;42.988;20.338;2022-12-10T16:10:42;115.88;;;99.32;;
70592;SDS011;58294;42.988;20.338;2022-12-10T16:13:14;116.55;;;103.95;;
70592;SDS011;58294;42.988;20.338;2022-12-10T16:15:44;103.28;;;89.15;;